TULLOCH (TUL)

Elevation: 515' · STANISLAUS R basin · Operator: US Bureau of Reclamation

Provisional data, subject to change.
Query executed Saturday at 7:30:10   clock

Select a sensor type for a plot of data.
Note: Reservoir Flows are daily averages.

Earlier

Date RES ELE    STORAGE    RES CHG    TOC STO    ABV TOC    OUTFLOW    INFLOW    EVAP    RIV REL    SPILL    DIS PWR   
 FEET   AF   AF   AF   AF   CFS   CFS   CFS   CFS   CFS   CFS  
01/29/2015 500.67 56029 173 57000 -971 265 355 3 0 0 265
01/30/2015 500.93 56311 282 57000 -689 227 371 2 0 0 227
01/31/2015 501.08 56475 164 57000 -525 266 352 3 0 0 266
02/01/2015 500.72 56083 -392 57000 -917 248 52 2 0 0 248
02/02/2015 500.33 55661 -422 57000 -1339 256 46 3 0 0 256
02/03/2015 500.50 55845 184 57000 -1155 282 378 3 0 0 282
02/04/2015 500.09 55401 -444 57000 -1599 284 62 2 0 0 284
02/05/2015 500.56 55910 509 57000 -1090 278 539 4 0 0 278
02/06/2015 500.67 56029 119 57000 -971 285 350 5 0 0 285
02/07/2015 501.60 57049 1020 57000 49 276 793 3 0 0 276
02/08/2015 503.27 58918 1869 57000 -- 298 1242 2 0 0 298
02/09/2015 503.53 59214 296 57000 2214 281 440 10 0 0 281
02/10/2015 503.26 58906 -308 57000 1906 277 123 1 0 0 277
02/11/2015 503.19 58827 -79 57000 1827 204 169 5 0 0 204
02/12/2015 502.93 58532 -295 57000 1532 217 69 1 0 0 217
02/13/2015 502.59 58151 -381 57000 1151 249 61 4 0 0 249
02/14/2015 502.13 57636 -515 57000 636 287 32 5 0 0 287
02/15/2015 501.62 57071 -565 57000 71 308 25 2 0 0 308
02/16/2015 501.11 56508 -563 57000 -492 371 90 3 0 0 371
02/17/2015 500.66 56018 -490 57000 -982 383 139 3 0 0 383
02/18/2015 500.07 55379 -639 57000 -1621 386 69 5 0 0 386
02/19/2015 500.26 55585 206 57000 -1415 384 490 2 0 0 384
02/20/2015 500.49 55834 249 57000 -1166 388 516 2 0 0 388
02/21/2015 500.64 55997 163 -- -- 387 472 3 0 0 387
02/22/2015 500.05 55357 -640 57000 -- 379 57 1 0 0 379
02/23/2015 500.15 55466 109 57000 -1534 402 460 3 0 0 402
02/24/2015 500.52 55867 401 57000 -1133 298 502 2 0 0 298
02/25/2015 501.07 56464 597 -- -- 299 603 3 0 0 299
02/26/2015 501.45 56883 419 57000 -117 297 510 2 0 0 297
02/27/2015 501.55 56994 111 57000 -6 254 314 4 0 0 254
02/28/2015 -- -- -- -- -- -- -- -- -- -- --

Later | Latest

Warning! This data is preliminary and subject to revision.

Show TUL Map | Plot TUL Data | 1 Month TUL Data | Real-Time TUL Data | TUL Info